Latest Observation

65 Stations

10 Minute Data
as of 5/5/26 10:29 AM PDT
Station Date Time Temp (°F) RH (%) Dew Pt (°F) Wind Spd (mph) Wind Dir (°) Wind Gust (mph) Wind Gst Dir (°) Latest Rain (In) Soil Moist (%) Soil Temp (°F) Daily Rain (In) Daily Min Temp (°F) Daily Max Temp (°F) Daily Max Wind (mph)
Hobart Mills 5/5/26 1020 43.2   0.3 100   4 43.1   0.8 1.4   1.1 NE | 40 2.2   1.0 NE | 56 0.00 - 32.0   0.0 0.03 34.4   0.0 45.9   2.3 6.0   2.9
Prosser Dam 5/5/26 1020 43.2   0.6 90   3 40.4   0.4 2.4   1.1 E | 96 5.7   2.0 E | 88 0.00 25.2   4.5 46.1   1.8 0.00 36.7   0.5 43.6   0.8 5.7   1.9
West Incline Village 5/5/26 1020 39.1   0.6 100   8 39.1   1.7 1.9   0.4 SE | 128 4.7   0.5 SE | 144 0.00 35.7   4.9 43.0   1.3 0.42 32.5   3.7 39.5   1.2 7.1   1.9
Incline Village (Fairview Blvd) 5/5/26 1020 38.6   2.2 100   6 38.5   0.4 0.0   0.1 SW | 230 0.6   1.5 SW | 230 0.00 29.0   3.3 49.5   2.2 0.37 33.5   5.1 38.7   3.1 2.6   1.6
Incline Village (Diamond Peak) 5/5/26 1020 36.4   2.1 99   3 36.2   1.2 0.0   0.3 N | 0 0.0   1.6 WNW | 292 0.01 8.7   0.4 40.7   3.0 0.06 31.8   5.6 36.7   2.7 1.5   3.5
Incline Village (Mill Creek) 5/5/26 1020 39.6   2.8 97   9 38.9   0.4 0.0   0.1 N | 0 0.0   1.1 N | 354 0.00 11.4   1.7 45.1   1.2 0.13 33.8   4.0 39.9   3.1 3.1   2.1
Incline Village (Lakeshore Blvd) 5/5/26 1020 41.9   2.3 91   4 39.5   1.1 0.0   0.0 SSE | 152 0.9   0.2 SSE | 149 0.00 36.5   1.8 46.8   3.0 0.02 35.8   1.5 42.1   2.9 2.6   2.1
Glenbrook 5/5/26 1020 41.4   3.7 89   9 38.5   0.8 1.2   0.2 ESE | 116 3.6   0.0 ESE | 103 0.00 44.3   0.0 44.5   0.5 0.05 34.2   5.0 41.6   3.7 6.0   0.5
Zephyr Cove 5/5/26 1020 40.0   3.8 99   14 39.8   0.0 0.3   0.3 NW | 313 1.9   1.9 NW | 316 0.00 - 34.3   0.0 0.01 32.6   8.3 40.1   4.0 1.9   0.4
Kingsbury Grade 5/5/26 1020 38.1   4.0 98   13 37.6   0.4 0.0   0.3 N | 0 0.0   1.9 SSE | 157 0.02 5.8   0.0 45.9   4.8 0.44 32.0   6.4 38.2   4.9 3.4   2.1
South Daggett Pass (Ridge) 5/5/26 1020 36.5   2.4 100   11 36.5   0.6 1.2   0.5 W | 277 3.6   2.5 NW | 308 0.03 6.6   0.1 45.8   2.0 0.32 31.2   5.2 37.5   2.6 10.3   3.7
Palomino Valley 5/5/26 1020 53.2   4.8 72   21 44.6   4.3 4.4   3.4 E | 79 6.5   1.5 ESE | 112 0.00 6.7   0.0 60.7   1.4 0.00 46.2   1.2 53.6   4.7 6.5   2.2
East Cold Springs 5/5/26 1020 49.1   0.8 76   4 41.9   2.1 7.5   3.2 W | 260 12.2   3.2 W | 264 0.00 1.6   0.1 52.9   1.3 0.09 40.3   3.2 49.9   1.1 17.8   4.0
Peavine 5/5/26 1030 47.2   0.9 77   5 40.5   0.9 5.0   3.3 N | 11 10.7   4.5 NNE | 16 0.00 - 53.4   0.0 0.00 40.7   0.7 48.0   1.3 16.3   5.0
West Verdi Peak 5/5/26 1020 46.3   2.9 81   5 40.9   1.2 4.8   4.4 WNW | 297 8.1   6.1 WNW | 290 0.00 22.2   6.0 48.4   1.1 0.00 37.1   2.5 47.2   0.6 11.7   0.1
West Verdi 5/5/26 1020 50.6   2.2 76   8 43.5   0.4 5.2   3.0 ESE | 118 9.4   5.0 E | 101 0.00 8.3   0.7 55.9   2.2 0.00 40.2   3.8 51.0   2.3 9.4   0.0
South Verdi 5/5/26 1020 47.6   0.8 78   5 41.1   2.4 8.3   11.3 WSW | 248 10.4   13.3 WSW | 248 0.00 16.7   0.7 49.7   3.5 0.00 41.1   3.7 47.9   1.1 23.4   5.7
Northwest Reno 5/5/26 1020 50.9   1.9 76   1 43.6   2.3 2.4   12.2 SSE | 148 6.1   13.5 SSE | 163 0.00 23.3   0.4 57.2   2.8 0.00 43.5   4.3 51.3   1.0 13.5   10.8
North Lawton 5/5/26 1020 49.5   1.2 75   3 41.7   0.3 4.0   3.8 SW | 226 6.2   6.2 SW | 229 0.00 - 39.1   0.0 0.00 42.5   4.1 49.6   0.1 16.8   3.4
West Reno (Mogul) 5/5/26 1020 51.7   1.9 72   4 42.9   0.5 1.3   2.6 NW | 317 5.5   4.0 NNW | 338 0.00 38.5   0.1 59.9   1.0 0.00 42.6   4.0 52.1   1.0 13.5   3.7
Caughlin (Hunter Lake Trail) 9/16/25 0800 59.7   3.5 41   11 35.9   2.7 0.0   0.0 N | 0 0.0   0.0 ENE | 66 0.00 15.7   0.0 69.8   0.5 0.00 55.7   3.2 67.7   9.1 9.4   0.9
ArrowCreek 5/5/26 1020 48.6   1.4 82   11 43.3   2.3 1.2   1.2 ESE | 122 6.5   6.5 SE | 141 0.00 - 32.0   0.0 0.00 43.4   2.1 49.1   4.6 6.7   5.3
Tracy 5/5/26 1020 52.8   2.8 71   11 43.6   1.8 7.3   3.6 SW | 235 10.8   4.6 WSW | 238 0.00 7.9   0.0 60.0   2.8 0.00 47.8   4.9 53.0   2.9 19.0   0.5
Virginia Highlands 5/5/26 1020 45.5   1.9 88   17 42.2   3.7 6.3   1.1 NW | 313 10.7   1.6 NNW | 341 0.00 9.3   2.1 55.5   1.3 0.00 40.1   3.7 45.9   3.2 12.3   1.4
Virginia City 5/5/26 1020 42.5   6.6 96   37 41.5   6.2 3.9   10.8 S | 169 6.7   14.3 SE | 144 0.00 8.2   0.1 51.2   2.7 0.01 38.6   4.6 43.6   5.9 21.1   5.0
Six Mile Canyon 9/9/25 0630 60.2   9.6 37   6 33.7   4.8 4.1   2.5 W | 277 6.1   2.9 WNW | 286 0.00 12.5   0.0 75.5   0.7 0.00 57.9   7.6 64.4   1.9 7.0   3.9
Mt Rose Highway 4/30/26 0510 40.8   4.7 47   13 22.3   1.3 2.3   0.2 WSW | 243 4.8   2.1 WSW | 246 0.00 24.1   0.3 43.0   0.8 0.00 40.5   4.7 43.0   5.3 7.7   0.4
Pleasant Valley 5/5/26 1020 47.9   3.6 78   14 41.2   1.5 4.2   1.5 SW | 228 6.2   5.3 SSW | 211 0.00 2.8   0.0 58.0   3.0 0.01 43.3   0.0 48.1   3.6 9.2   2.4
New Washoe City 5/5/26 1020 47.0   4.3 84   17 42.4   1.6 0.0   2.6 N | 0 0.0   8.7 W | 262 0.00 4.4   0.1 56.0   2.1 0.01 42.8   0.3 48.1   3.5 7.0   3.2
Franktown Creek 5/5/26 1020 47.3   3.4 86   14 43.3   1.5 0.3   0.9 E | 87 2.1   1.2 ESE | 114 0.00 11.0   0.2 53.4   2.0 0.01 42.8   0.2 47.5   3.6 6.6   0.5
Musgrove Creek 5/5/26 1020 44.9   6.0 90   24 42.1   2.1 1.4   1.1 NE | 35 3.6   3.4 NE | 34 0.00 45.0   1.0 52.1   1.0 0.01 40.8   1.9 45.2   6.6 8.3   3.0
East Carson 11/23/24 0110 28.6   28.4 - - 4.7   11.0 SW | 220 14.7   10.1 SW | 219 0.02 - 50.9   0.1 0.02 -25.9   79.1 42.9   14.6 16.0   10.7
Kings Canyon 5/5/26 1020 46.0   6.4 84   21 41.5   1.2 0.6   0.3 W | 264 2.7   0.9 S | 188 0.00 15.1   0.0 52.9   2.0 0.05 41.5   0.4 46.4   6.7 11.4   2.2
Carson City (Voltaire Canyon) 5/5/26 1020 45.5   7.4 88   28 42.1   2.7 6.9   4.0 SSE | 162 10.7   2.1 SSE | 155 0.00 2.8   0.0 60.4   1.6 0.01 42.1   4.3 45.8   8.6 15.4   8.7
Jacks Valley 5/5/26 1020 44.6   7.0 87   21 40.9   0.6 1.7   5.3 SSW | 213 4.3   6.5 SSW | 193 0.00 12.7   3.1 53.9   4.6 0.13 41.5   3.2 44.9   8.6 7.9   9.1
Genoa 5/5/26 1020 46.4   6.2 89   22 43.4   1.3 0.1   0.1 NE | 36 3.2   0.4 NNE | 32 0.00 11.8   6.4 50.9   4.4 0.15 43.2   2.4 46.7   7.5 3.7   9.3
South Genoa (Walleys Hot Springs) 5/5/26 1020 46.8   5.6 81   13 41.2   1.0 2.5   4.9 SSE | 149 6.3   4.5 SE | 126 0.00 13.9   0.3 59.8   2.1 0.14 44.2   0.2 47.2   5.7 7.9   6.6
SW Gardnerville (HWY 88) 5/5/26 1020 46.1   2.9 78   0 39.8   2.9 3.4   7.3 SE | 146 5.7   8.3 SE | 124 0.00 3.4   0.0 54.0   1.4 0.01 43.2   1.2 46.3   6.2 11.4   2.6
Sheridan 5/5/26 1020 46.1   3.6 81   5 40.7   1.9 2.6   5.0 NNW | 327 5.0   7.8 NW | 323 0.00 6.6   4.2 55.9   1.4 0.12 43.1   1.1 46.3   5.5 8.7   4.1
Ruhenstroth 5/5/26 1020 45.7   4.1 82   10 40.5   0.5 1.6   4.5 SSE | 163 3.6   6.0 SW | 214 0.00 12.6   0.1 54.0   1.4 0.61 42.2   3.4 45.8   5.9 11.7   4.8
Double Spring 5/5/26 1020 43.3   2.9 83   4 38.4   1.4 5.3   0.2 N | 357 8.7   0.5 N | 10 0.00 29.4   1.0 51.3   1.5 0.33 38.2   0.8 43.5   3.3 10.4   1.2
North Topaz Lake 5/5/26 1020 42.8   6.0 91   24 40.2   1.9 0.5   12.8 E | 93 4.5   15.8 ESE | 106 0.00 8.9   0.0 52.1   1.6 0.29 40.2   4.8 44.1   7.1 20.7   1.4
Wild Oat Mountain 5/5/26 1020 40.9   6.5 90   25 38.3   2.0 3.2   8.4 SE | 143 6.0   14.2 SE | 129 0.00 16.4   0.0 54.6   1.8 0.26 38.1   5.7 42.2   5.8 14.4   5.7
Smith Valley 5/5/26 1020 47.2   8.0 76   17 40.2   1.1 1.3   1.4 SSE | 151 3.4   3.9 SSE | 152 0.00 5.8   0.0 57.4   1.6 0.25 43.6   1.7 47.7   9.2 15.9   5.2
Pine Grove Mountain 5/5/26 1020 32.7   8.4 97   30 32.0   1.0 2.9   3.4 N | 9 6.7   8.8 NNE | 14 0.02 17.5   3.0 43.2   2.8 0.07 31.7   6.9 33.0   9.5 9.2   6.3
Paradise Hill 5/5/26 1020 59.8   5.6 49   19 40.7   7.5 5.1   3.2 WSW | 243 13.2   6.8 WNW | 302 0.00 8.1   0.1 58.7   0.6 0.00 43.5   3.3 61.1   4.8 17.8   4.7
Winnemucca 5/5/26 1020 58.0   6.6 56   24 42.4   8.6 9.3   7.0 SW | 233 17.1   10.6 WSW | 245 0.00 5.9   0.0 57.1   0.4 0.00 44.4   0.0 58.6   6.5 18.4   7.4
NE Elko 5/5/26 1020 56.4   6.3 53   24 39.6   9.1 15.1   8.2 SSW | 205 20.9   6.8 SW | 225 0.00 12.4   0.0 56.8   2.5 0.00 44.8   11.3 57.1   6.3 21.1   2.4
North Elko 5/5/26 1020 53.0   7.0 59   26 39.2   8.4 11.5   3.7 SW | 226 17.8   3.5 SW | 225 0.00 28.5   0.1 55.8   0.9 0.00 43.0   2.5 53.7   7.1 20.5   6.1
South Elko 5/5/26 1020 61.3   3.4 66   27 49.7   10.7 12.3   7.3 W | 275 18.5   8.0 W | 274 0.00 18.6   0.1 54.9   1.2 0.00 46.2   3.6 106.2   18.5 19.6   9.1
Lamoille 1/28/26 1720 33.2   0.5 65   17 22.8   6.3 5.8   1.5 SSE | 166 7.7   1.9 SE | 139 0.00 12.2   0.0 33.4   0.1 0.02 23.5   2.0 36.5   5.9 25.6   17.4
Reid Gardner Sub 5/5/26 1020 69.2   5.6 31   2 37.0   3.1 5.4   4.1 SSE | 161 11.3   3.6 S | 175 0.00 24.0   0.5 70.3   1.5 0.00 54.6   9.7 69.5   5.9 15.4   6.2
Corn Creek 5/5/26 1020 60.2   4.2 40   5 36.1   0.6 8.3   6.9 E | 94 16.3   5.6 E | 80 0.00 3.9   0.0 68.3   3.3 0.00 52.1   7.1 61.0   8.5 18.3   5.6
Lucky Strike 5/5/26 1020 50.4   3.6 47   2 30.7   1.9 7.8   1.7 ESE | 115 13.2   2.1 E | 93 0.00 4.6   0.0 63.2   1.1 0.00 42.4   8.6 51.3   8.8 14.0   13.9
Lower Angel Peak 5/5/26 1020 46.7   4.7 52   12 30.2   2.3 3.3   0.4 ENE | 58 9.1   1.0 ENE | 76 0.00 10.4   0.1 53.1   1.2 0.00 33.6   7.9 47.4   7.0 14.2   4.1
Angel Peak 5/5/26 1020 34.7   8.1 73   30 26.8   5.1 5.5   2.9 ESE | 123 10.6   6.3 SSE | 153 0.00 3.5   0.0 45.7   1.3 0.00 29.5   8.9 35.6   8.3 15.3   19.2
Upper Kyle Canyon 5/5/26 1020 42.3   5.7 55   39 27.4   23.7 6.6   1.2 SSE | 147 12.5   1.5 SE | 134 0.00 13.7   0.0 53.1   1.0 0.00 30.5   6.2 43.1   6.1 15.0   4.4
Mt Charleston 5/5/26 1020 42.8   5.7 58   36 28.9   17.7 2.8   2.1 ENE | 73 10.8   4.6 ESE | 116 0.00 18.3   0.1 48.4   0.1 0.00 31.3   8.1 43.4   6.3 12.3   3.1
Mid Kyle Canyon 5/5/26 1030 48.0   5.4 51   16 30.7   4.5 4.8   9.1 E | 90 10.2   13.8 ESE | 112 0.00 7.0   0.0 55.1   1.0 0.00 34.8   7.7 48.9   5.8 19.0   5.0
Blue Diamond 5/5/26 1020 60.9   4.7 35   9 33.0   3.1 4.3   3.6 ENE | 60 7.7   6.5 NE | 44 0.00 3.5   0.0 68.1   0.6 0.00 48.1   6.6 61.5   5.8 18.5   2.6
Artesian Sub 5/5/26 1020 67.6   3.1 31   0 35.6   2.8 4.1   5.3 SE | 134 11.0   7.8 ESE | 114 0.00 13.4   0.0 74.1   0.4 0.00 59.1   6.0 68.7   8.6 15.3   4.2
North Henderson 5/5/26 1020 67.6   5.1 33   4 37.1   1.1 5.4   0.2 SE | 145 10.1   2.0 S | 178 0.00 8.8   0.4 78.6   0.9 0.00 61.6   4.8 68.6   8.2 19.6   4.1
Sandy Valley 5/5/26 1020 59.6   1.9 43   1 37.0   1.3 5.7   3.1 S | 169 9.6   4.3 S | 181 0.00 4.4   0.1 71.6   3.2 0.00 51.0   4.0 60.2   4.0 11.2   0.9
Searchlight 5/5/26 1030 59.4   3.2 39   1 34.6   2.2 5.0   11.2 S | 186 10.1   13.0 S | 191 0.00 4.5   0.1 68.0   4.2 0.00 46.9   7.7 60.4   4.4 11.0   12.0
Laughlin 5/5/26 1020 71.8   2.2 34   0 42.1   2.2 5.8   6.6 S | 177 10.4   7.8 S | 171 0.00 4.1   0.1 82.0   2.4 0.00 63.1   8.8 72.4   10.3 14.3   11.5
Max     71.8 100 49.7 15.1 - 20.9 - 0.03 45.0 82.0 0.61 63.1 106.2 23.4
Avg     48.4 74 39.1 4.0 - 7.6 - 0.00 13.9 54.2 - - - -
Min     32.7 31 26.8 0.0 - 0.0 - 0.00 1.6 32.0 0.00 29.5 33.0 1.5